ユジノサハリンスク の空港の天気 - METARとTAF

ホムトヴォ空港(ユジノサハリンスク) ( UHSS / UUS ) - ロシア ユジノサハリンスク
飛行場実況気象(Metar)
観測時間11/27 17:30 VLAT (11/27 07:30 UTC)
風向・風速北西 5m/s
視程10km以上
天気現象
全天の8割程度の雲 雲底高度 1250m
気温-2℃
湿度64%
気圧1017hPa
METARUHSS 270730Z 31005MPS 9999 BKN041 M02/M08 Q1017 R01/150065 NOSIG RMK QFE761/1015
過去の天気等 Google飛行場航空写真 Wunderground天気予報

過去48時間のMETAR

飛行場予報(TAF)
発表時間: 11/27 14:56 VLAT (11/27 04:56 UTC)
予報対象時間: 27日16時 VLAT ~ 28日22時 VLAT
風向・風速北西 3m/s 瞬間風速 8m/s
視程10km以上
全天の8割程度の積乱雲 雲底高度 760m
27日17時 VLAT ~ 27日19時 VLAT に徐々に
風向・風速西北西 3m/s
TAF UHSS 270456Z 2706/2812 32003G08MPS 9999 BKN025CB
BECMG 2707/2709 30003MPS